createdAt,value
2019-02-24T02:42:26.653Z,33.87
2019-02-24T02:50:16.509Z,38.83
2019-02-24T02:53:04.464Z,29.13
2019-02-24T03:19:24.956Z,28.93
2019-02-24T03:22:32.722Z,34.87
2019-02-24T03:25:12.461Z,29.67
2019-02-24T03:28:01.226Z,29.47
2019-02-24T03:30:42.865Z,34.30
2019-02-24T03:43:53.958Z,42.13
2019-02-24T03:46:32.620Z,37.37
2019-02-24T03:54:19.985Z,41.30
2019-02-24T03:57:08.769Z,33.17
2019-02-24T03:59:49.907Z,38.20
2019-02-24T04:10:16.136Z,29.40
2019-02-24T04:12:57.452Z,27.57
2019-02-24T04:15:39.424Z,33.20
2019-02-24T04:18:20.511Z,35.50
2019-02-24T04:21:01.866Z,31.03
2019-02-24T04:23:42.951Z,32.50
2019-02-24T04:26:24.396Z,35.40
2019-02-24T04:29:05.842Z,33.77
2019-02-24T04:31:47.413Z,35.27
2019-02-24T04:34:28.941Z,28.67
2019-02-24T04:37:08.706Z,31.87
2019-02-24T04:39:57.558Z,33.27
2019-02-24T04:42:38.621Z,30.90
2019-02-24T04:45:19.886Z,32.97
2019-02-24T04:48:00.979Z,31.83
2019-02-24T04:50:42.553Z,37.60
2019-02-24T04:53:23.788Z,31.83
2019-02-24T04:56:05.356Z,37.13
2019-02-24T04:58:47.101Z,31.63
2019-02-24T05:01:26.878Z,31.40
2019-02-24T05:04:15.612Z,26.30
2019-02-24T05:06:56.713Z,27.67
2019-02-24T05:09:26.510Z,28.60
2019-02-24T05:12:15.333Z,28.80
2019-02-24T05:14:56.646Z,28.60
2019-02-24T05:54:30.201Z,36.83
2019-02-24T05:57:11.535Z,35.20
2019-02-24T05:59:55.489Z,31.70
2019-02-24T06:18:17.994Z,25.50
2019-02-24T06:20:57.796Z,27.03
2019-02-24T06:23:37.615Z,26.50
2019-02-24T06:26:17.152Z,27.70
2019-02-24T06:28:58.381Z,29.27
2019-02-24T06:31:37.880Z,26.97
2019-02-24T06:34:26.572Z,22.17
2019-02-24T06:37:07.928Z,27.33
2019-02-24T06:39:48.998Z,29.40
2019-02-24T06:42:30.468Z,26.73
2019-02-24T06:45:12.194Z,25.33
2019-02-24T06:47:53.719Z,20.20
2019-02-24T06:50:52.000Z,25.53
2019-02-24T06:53:40.880Z,26.90
2019-02-24T06:56:23.676Z,20.07
2019-02-24T06:59:05.574Z,24.53
2019-02-24T07:01:46.870Z,24.23
2019-02-24T07:04:28.259Z,24.20
2019-02-24T07:07:09.698Z,23.97
2019-02-24T07:09:51.192Z,32.30
2019-02-24T07:12:32.013Z,25.80
2019-02-24T07:15:13.179Z,25.73
2019-02-24T07:17:52.697Z,26.00
2019-02-24T07:20:41.575Z,21.83
2019-02-24T07:23:21.255Z,24.10
2019-02-24T07:26:10.085Z,27.97
2019-02-24T07:28:51.460Z,25.33
2019-02-24T07:31:32.538Z,22.87
2019-02-24T07:34:12.100Z,28.17
2019-02-24T07:36:51.717Z,31.87
2019-02-24T07:39:32.754Z,28.17
2019-02-24T07:42:14.008Z,28.67
2019-02-24T07:44:53.833Z,29.53
2019-02-24T07:47:42.670Z,30.37
2019-02-24T07:50:23.772Z,32.13
2019-02-24T07:53:03.459Z,34.50
2019-02-24T07:55:52.234Z,34.03
2019-02-24T07:58:22.049Z,33.27
2019-02-24T08:01:10.740Z,29.50
2019-02-24T08:03:52.063Z,32.00
2019-02-24T08:06:33.240Z,29.03
2019-02-24T08:09:13.019Z,29.67
2019-02-24T08:11:42.789Z,31.90
2019-02-24T08:19:30.377Z,29.80
2019-02-24T08:22:38.315Z,35.63
2019-02-24T08:27:59.636Z,31.43
2019-02-24T09:36:50.270Z,36.03
2019-02-24T09:39:31.646Z,34.63
2019-02-24T09:42:13.302Z,35.57
2019-02-24T09:44:54.624Z,36.47
2019-02-24T09:47:36.019Z,34.97
2019-02-24T09:50:17.369Z,35.47
2019-02-24T09:52:58.577Z,34.23
2019-02-24T09:55:47.284Z,39.27
2019-02-24T09:58:28.153Z,40.37
2019-02-24T11:01:52.489Z,28.27
2019-02-24T11:54:39.093Z,30.83
2019-02-24T12:31:56.524Z,28.47
2019-02-24T12:34:43.446Z,25.13
2019-02-24T12:37:24.956Z,28.07
2019-02-24T12:48:02.719Z,32.00
2019-02-24T12:50:51.588Z,28.57
2019-02-24T12:53:33.045Z,25.23
2019-02-24T12:58:53.501Z,19.40
2019-02-24T13:04:20.670Z,19.30
2019-02-24T13:17:29.137Z,13.73
2019-02-24T13:41:28.738Z,12.60
2019-02-24T13:43:58.545Z,14.80
2019-02-24T13:46:47.339Z,17.50
2019-02-24T14:39:48.111Z,6.93
2019-02-24T14:45:10.388Z,9.37
2019-02-24T15:08:52.047Z,13.53
2019-02-24T15:11:35.402Z,16.00
2019-02-24T15:14:16.755Z,17.60
2019-02-24T15:24:44.586Z,27.40
2019-02-24T15:30:08.681Z,17.33
2019-02-24T15:53:51.344Z,21.80
2019-02-24T15:56:40.614Z,19.50
2019-02-24T15:59:10.583Z,16.90
2019-02-24T16:02:00.003Z,21.13
2019-02-24T16:04:39.547Z,23.13
2019-02-24T16:07:28.388Z,18.33
2019-02-24T16:10:09.948Z,19.73
2019-02-24T16:20:41.726Z,28.33
2019-02-24T16:23:30.597Z,28.43
2019-02-24T16:26:03.109Z,24.07
2019-02-24T16:31:59.859Z,26.20
2019-02-24T16:34:30.943Z,23.60
2019-02-24T16:50:15.993Z,23.23
2019-02-24T16:53:07.197Z,18.33
2019-02-24T16:55:48.363Z,21.20
2019-02-24T17:09:13.052Z,25.50
2019-02-24T17:17:01.780Z,21.60
2019-02-24T17:30:33.649Z,26.73
2019-02-24T17:33:04.621Z,27.33
2019-02-24T17:35:54.569Z,30.07
2019-02-24T17:38:35.500Z,33.10
2019-02-24T17:43:56.113Z,29.97
2019-02-24T17:46:45.248Z,31.00
2019-02-24T18:02:48.956Z,40.27
2019-02-24T18:54:14.783Z,35.00
2019-02-24T18:56:53.732Z,40.87
2019-02-24T19:00:15.587Z,42.83
2019-02-24T19:02:56.034Z,36.77
2019-02-24T19:05:37.649Z,39.43
2019-02-24T19:19:25.955Z,40.30
2019-02-24T19:27:39.356Z,39.67
2019-02-24T19:49:01.283Z,31.57
2019-02-24T20:06:12.739Z,33.77
2019-02-24T20:14:01.493Z,34.47
2019-02-24T20:16:43.998Z,27.97
2019-02-24T20:32:51.909Z,38.83
2019-02-24T20:40:39.434Z,32.27
2019-02-24T20:43:28.348Z,31.90
2019-02-24T20:45:58.348Z,34.67
2019-02-24T20:48:47.281Z,32.50
2019-02-24T20:51:35.374Z,29.63
2019-02-24T20:56:53.260Z,35.40
2019-02-24T21:10:21.660Z,32.57
2019-02-24T21:34:28.117Z,28.93
2019-02-24T21:55:29.637Z,34.23
2019-02-24T22:40:41.755Z,30.27
2019-02-24T22:45:52.104Z,29.27
2019-02-24T23:06:54.435Z,39.50
2019-02-24T23:09:35.936Z,40.13
2019-02-24T23:12:17.769Z,37.70
2019-02-24T23:15:06.804Z,38.70
2019-02-24T23:17:55.577Z,36.90
2019-02-24T23:20:36.653Z,35.43
